createdAt,value
2018-08-16T00:00:37.394Z,71.34
2018-08-16T00:03:06.706Z,71.49
2018-08-16T00:05:35.537Z,71.99
2018-08-16T00:08:04.715Z,72.44
2018-08-16T00:10:33.563Z,72.64
2018-08-16T00:13:02.406Z,72.66
2018-08-16T00:15:31.244Z,73.83
2018-08-16T00:18:00.035Z,73.65
2018-08-16T00:20:28.790Z,74.60
2018-08-16T00:22:59.119Z,75.35
2018-08-16T00:25:28.999Z,74.07
2018-08-16T00:27:58.024Z,75.11
2018-08-16T00:30:26.827Z,74.03
2018-08-16T00:32:57.862Z,75.83
2018-08-16T00:35:26.683Z,75.27
2018-08-16T00:37:55.494Z,73.87
2018-08-16T00:40:26.337Z,73.26
2018-08-16T00:42:56.150Z,73.88
2018-08-16T00:45:27.480Z,75.19
2018-08-16T00:47:56.678Z,74.42
2018-08-16T00:50:25.869Z,74.83
2018-08-16T00:52:54.855Z,74.88
2018-08-16T00:55:24.351Z,75.41
2018-08-16T00:57:53.360Z,75.97
2018-08-16T01:00:22.914Z,76.48
2018-08-16T01:02:52.240Z,75.64
2018-08-16T01:05:22.244Z,75.08
2018-08-16T01:07:52.056Z,76.07
2018-08-16T01:10:21.117Z,75.53
2018-08-16T01:12:50.292Z,75.29
2018-08-16T01:15:21.552Z,75.55
2018-08-16T01:17:50.642Z,75.85
2018-08-16T01:20:21.677Z,75.56
2018-08-16T01:22:51.137Z,76.45
2018-08-16T01:25:22.492Z,77.54
2018-08-16T01:27:53.468Z,76.73
2018-08-16T01:30:25.070Z,76.94
2018-08-16T01:32:54.102Z,76.50
2018-08-16T01:35:24.376Z,77.25
2018-08-16T01:37:53.648Z,76.71
2018-08-16T01:40:24.815Z,77.31
2018-08-16T01:42:56.128Z,77.48
2018-08-16T01:45:25.545Z,77.54
2018-08-16T01:47:57.284Z,77.37
2018-08-16T01:50:26.372Z,76.81
2018-08-16T01:52:55.601Z,75.95
2018-08-16T01:55:24.388Z,75.45
2018-08-16T01:57:53.168Z,75.36
2018-08-16T02:00:22.017Z,75.32
2018-08-16T02:02:50.846Z,75.32
2018-08-16T02:05:19.762Z,75.65
2018-08-16T02:07:48.485Z,75.30
2018-08-16T02:10:19.094Z,75.37
2018-08-16T02:12:48.510Z,75.50
2018-08-16T02:15:17.342Z,75.86
2018-08-16T02:17:46.140Z,75.57
2018-08-16T02:20:15.681Z,75.63
2018-08-16T02:22:45.998Z,75.79
2018-08-16T02:25:14.882Z,75.83
2018-08-16T02:27:44.876Z,76.23
2018-08-16T02:30:15.736Z,76.12
2018-08-16T02:32:44.542Z,76.61
2018-08-16T02:35:13.474Z,75.77
2018-08-16T02:37:42.961Z,76.52
2018-08-16T02:40:12.693Z,77.34
2018-08-16T02:42:41.455Z,77.36
2018-08-16T02:45:10.307Z,77.87
2018-08-16T02:47:39.061Z,77.97
2018-08-16T02:50:10.558Z,77.66
2018-08-16T02:52:39.345Z,78.34
2018-08-16T02:55:08.296Z,77.54
2018-08-16T02:57:38.236Z,78.12
2018-08-16T03:00:09.724Z,78.62
2018-08-16T03:02:40.256Z,78.08
2018-08-16T03:05:10.618Z,78.27
2018-08-16T03:07:39.455Z,78.58
2018-08-16T03:10:09.935Z,77.35
2018-08-16T03:12:40.355Z,78.44
2018-08-16T03:15:10.326Z,78.99
2018-08-16T03:17:40.408Z,77.83
2018-08-16T03:20:09.524Z,78.27
2018-08-16T03:22:39.223Z,78.42
2018-08-16T03:25:08.030Z,78.66
2018-08-16T03:27:36.789Z,79.21
2018-08-16T03:30:05.877Z,78.48
2018-08-16T03:32:34.641Z,79.41
2018-08-16T03:35:03.476Z,78.94
2018-08-16T03:37:32.272Z,78.55
2018-08-16T03:40:01.265Z,80.55
2018-08-16T03:42:30.056Z,80.49
2018-08-16T03:44:58.814Z,80.42
2018-08-16T03:47:27.598Z,79.58
2018-08-16T03:49:57.288Z,79.07
2018-08-16T03:52:26.178Z,78.96
2018-08-16T03:54:56.084Z,79.45
2018-08-16T03:57:24.865Z,80.79
2018-08-16T03:59:53.713Z,81.23
2018-08-16T04:02:23.984Z,80.14
2018-08-16T04:04:53.882Z,79.64
2018-08-16T04:07:23.494Z,79.67
2018-08-16T04:09:54.517Z,79.61
2018-08-16T04:12:23.331Z,79.50
2018-08-16T04:14:53.691Z,80.53
2018-08-16T04:17:29.726Z,79.82
2018-08-16T04:19:59.946Z,79.20
2018-08-16T04:22:30.291Z,79.99
2018-08-16T04:25:00.253Z,79.83
2018-08-16T04:27:30.609Z,79.69
2018-08-16T04:30:00.763Z,78.88
2018-08-16T04:32:29.525Z,79.50
2018-08-16T04:34:58.341Z,79.90
2018-08-16T04:37:27.124Z,81.68
2018-08-16T04:39:57.325Z,80.86
2018-08-16T04:42:31.376Z,79.84
2018-08-16T04:45:00.422Z,79.81
2018-08-16T04:47:29.233Z,80.86
2018-08-16T04:49:58.323Z,80.81
2018-08-16T04:52:27.639Z,79.77
2018-08-16T04:54:56.549Z,81.04
2018-08-16T04:57:25.579Z,80.73
2018-08-16T05:00:02.041Z,79.87
2018-08-16T05:02:30.807Z,80.19
2018-08-16T05:05:00.129Z,80.31
2018-08-16T05:07:29.063Z,80.09
2018-08-16T05:09:59.437Z,80.19
2018-08-16T05:12:29.921Z,80.14
2018-08-16T05:15:00.116Z,79.68
2018-08-16T05:17:29.316Z,79.30
2018-08-16T05:19:58.172Z,79.94
2018-08-16T05:22:26.972Z,79.64
2018-08-16T05:24:55.727Z,79.48
2018-08-16T05:27:24.546Z,76.54
2018-08-16T05:29:53.296Z,76.90
2018-08-16T05:32:22.077Z,78.19
2018-08-16T05:34:50.828Z,77.46
2018-08-16T05:37:20.073Z,77.64
2018-08-16T05:39:49.215Z,75.99
2018-08-16T05:42:18.437Z,75.93
2018-08-16T05:44:47.608Z,76.13
2018-08-16T05:47:16.709Z,75.24
2018-08-16T05:49:45.684Z,74.65
2018-08-16T05:52:14.797Z,74.46
2018-08-16T05:54:43.853Z,73.83
2018-08-16T05:57:12.889Z,73.86
2018-08-16T05:59:42.004Z,72.89
2018-08-16T06:02:10.968Z,72.00
2018-08-16T06:04:40.065Z,72.49
2018-08-16T06:07:09.100Z,71.72
2018-08-16T06:09:38.356Z,70.67
2018-08-16T06:12:07.152Z,70.48
2018-08-16T06:14:36.352Z,70.65
2018-08-16T06:17:05.460Z,69.93
2018-08-16T06:19:34.689Z,69.29
2018-08-16T06:22:03.944Z,69.58
2018-08-16T06:24:32.913Z,69.22
2018-08-16T06:27:02.032Z,67.61
2018-08-16T06:29:31.532Z,66.37
2018-08-16T06:32:00.732Z,66.34
2018-08-16T06:34:29.733Z,65.73
2018-08-16T06:36:58.828Z,65.78
2018-08-16T06:39:27.738Z,65.45
2018-08-16T06:41:56.868Z,64.40
2018-08-16T06:44:26.056Z,64.02
2018-08-16T06:46:55.320Z,64.20
2018-08-16T06:49:24.388Z,63.21
2018-08-16T06:51:53.589Z,64.86
2018-08-16T06:54:22.806Z,62.92
2018-08-16T06:56:51.997Z,59.57
2018-08-16T06:59:20.888Z,55.23
2018-08-16T07:01:49.949Z,50.68
2018-08-16T07:04:19.060Z,48.86
2018-08-16T07:06:47.954Z,47.42
2018-08-16T07:09:16.960Z,45.44
2018-08-16T07:11:45.936Z,43.41
2018-08-16T07:14:14.837Z,39.94
2018-08-16T07:16:43.675Z,40.57
2018-08-16T07:19:12.472Z,40.59
2018-08-16T07:21:41.485Z,40.32
2018-08-16T07:24:10.261Z,40.01
2018-08-16T07:26:39.046Z,40.45
2018-08-16T07:29:07.840Z,37.17
2018-08-16T07:31:36.672Z,35.95
2018-08-16T07:34:05.490Z,37.02
2018-08-16T07:36:34.295Z,36.71
2018-08-16T07:47:09.540Z,38.03
2018-08-16T07:49:38.307Z,35.32
2018-08-16T07:52:07.205Z,35.68
2018-08-16T07:54:35.972Z,35.64
2018-08-16T07:57:05.021Z,35.55
2018-08-16T07:59:33.805Z,35.68
2018-08-16T08:02:02.560Z,33.73
2018-08-16T08:04:31.319Z,35.10
2018-08-16T08:07:00.094Z,35.78
2018-08-16T08:09:29.081Z,36.78
2018-08-16T08:11:57.702Z,35.14
2018-08-16T08:14:26.468Z,37.04
2018-08-16T08:16:55.277Z,35.59
2018-08-16T08:19:24.160Z,37.48
2018-08-16T08:21:52.996Z,35.65
2018-08-16T08:24:21.755Z,37.12
2018-08-16T08:26:50.525Z,39.76
2018-08-16T08:29:19.280Z,41.39
2018-08-16T08:31:48.161Z,40.96
2018-08-16T08:34:16.842Z,45.30
2018-08-16T08:36:56.724Z,44.83
2018-08-16T08:39:25.518Z,44.70
2018-08-16T08:41:54.302Z,43.15
2018-08-16T08:44:24.601Z,45.32
2018-08-16T08:46:53.809Z,45.25
2018-08-16T08:49:22.709Z,45.34
2018-08-16T08:51:52.500Z,44.46
2018-08-16T08:54:39.433Z,45.29
2018-08-16T08:57:19.341Z,42.13
2018-08-16T08:59:48.119Z,41.21
2018-08-16T09:02:17.059Z,42.66
2018-08-16T09:04:45.851Z,39.11
2018-08-16T09:07:15.952Z,39.34
2018-08-16T09:11:01.040Z,40.88
2018-08-16T09:13:41.195Z,40.12
2018-08-16T09:16:17.417Z,38.71
2018-08-16T09:18:46.173Z,40.27
2018-08-16T09:21:15.341Z,36.99
2018-08-16T09:23:44.148Z,39.30
2018-08-16T09:26:18.068Z,40.33
2018-08-16T09:28:46.804Z,39.64
2018-08-16T09:31:27.143Z,39.28
2018-08-16T09:34:34.248Z,37.93
2018-08-16T09:37:03.007Z,40.15
2018-08-16T09:39:31.794Z,38.50
2018-08-16T09:42:00.559Z,38.78
2018-08-16T09:44:29.342Z,38.86
2018-08-16T09:47:10.923Z,38.03
2018-08-16T09:49:43.596Z,38.30
2018-08-16T09:52:13.202Z,36.63
2018-08-16T09:54:41.996Z,36.19
2018-08-16T09:57:11.779Z,36.29
2018-08-16T09:59:40.580Z,36.89
2018-08-16T10:02:11.365Z,36.05
2018-08-16T10:04:40.029Z,37.36
2018-08-16T10:07:08.817Z,35.97
2018-08-16T10:09:37.584Z,36.13
2018-08-16T10:12:06.414Z,36.97
2018-08-16T10:14:35.218Z,37.19
2018-08-16T10:17:04.086Z,39.06
2018-08-16T10:19:32.869Z,36.02
2018-08-16T10:22:01.644Z,35.93
2018-08-16T10:24:30.432Z,37.69
2018-08-16T10:26:59.264Z,35.80
2018-08-16T10:29:27.961Z,36.64
2018-08-16T10:31:56.717Z,35.65
2018-08-16T10:34:25.472Z,35.18
2018-08-16T10:36:54.264Z,35.92
2018-08-16T10:39:23.065Z,34.26
2018-08-16T10:41:51.841Z,35.88
2018-08-16T10:44:20.610Z,37.27
2018-08-16T10:46:49.396Z,36.28
2018-08-16T10:49:18.176Z,34.37
2018-08-16T10:51:46.936Z,33.69
2018-08-16T10:54:15.738Z,35.95
2018-08-16T10:56:44.535Z,33.75
2018-08-16T10:59:13.301Z,32.37
2018-08-16T11:01:42.185Z,34.71
2018-08-16T11:04:11.024Z,32.32
2018-08-16T11:06:39.778Z,33.34
2018-08-16T11:09:09.835Z,31.50
2018-08-16T11:11:38.912Z,32.45
2018-08-16T11:14:07.684Z,32.46
2018-08-16T11:16:36.438Z,31.72
2018-08-16T11:19:05.181Z,32.69
2018-08-16T11:21:33.970Z,33.62
2018-08-16T11:24:02.736Z,32.88
2018-08-16T11:26:31.516Z,33.50
2018-08-16T11:29:00.281Z,32.69
2018-08-16T11:31:29.033Z,30.80
2018-08-16T11:33:57.824Z,32.72
2018-08-16T11:36:26.605Z,31.92
2018-08-16T11:38:55.421Z,33.11
2018-08-16T11:41:24.198Z,32.59
2018-08-16T11:43:52.921Z,29.79
2018-08-16T11:46:21.645Z,32.15
2018-08-16T11:48:50.418Z,33.33
2018-08-16T11:51:19.152Z,31.98
2018-08-16T11:53:47.901Z,31.14
2018-08-16T11:56:16.676Z,30.63
2018-08-16T11:58:45.482Z,30.92
2018-08-16T12:01:14.220Z,29.47
2018-08-16T12:03:42.978Z,31.00
2018-08-16T12:06:11.775Z,30.73
2018-08-16T12:08:40.542Z,31.34
2018-08-16T12:11:09.510Z,30.57
2018-08-16T12:13:38.249Z,30.80
2018-08-16T12:16:07.060Z,30.88
2018-08-16T12:18:35.812Z,29.53
2018-08-16T12:21:04.591Z,31.13
2018-08-16T12:23:33.401Z,30.79
2018-08-16T12:26:02.180Z,28.38
2018-08-16T12:28:30.928Z,29.75
2018-08-16T12:30:59.747Z,29.05
2018-08-16T12:33:28.512Z,30.12
2018-08-16T12:35:57.262Z,29.29
2018-08-16T12:38:26.020Z,29.32
2018-08-16T12:40:54.818Z,30.16
2018-08-16T12:43:23.873Z,30.85
2018-08-16T12:45:52.640Z,28.19
2018-08-16T12:48:21.394Z,28.29
2018-08-16T12:50:50.154Z,28.14
2018-08-16T12:53:18.897Z,27.71
2018-08-16T12:55:47.698Z,28.75
2018-08-16T12:58:16.470Z,28.87
2018-08-16T13:00:45.217Z,26.31
2018-08-16T13:03:14.005Z,29.53
2018-08-16T13:05:42.795Z,30.41
2018-08-16T13:08:11.672Z,28.14
2018-08-16T13:10:40.440Z,29.65
2018-08-16T13:13:09.239Z,28.90
2018-08-16T13:15:38.017Z,27.91
2018-08-16T13:18:06.849Z,26.96
2018-08-16T13:20:35.609Z,29.06
2018-08-16T13:23:04.438Z,27.16
2018-08-16T13:25:33.251Z,27.04
2018-08-16T13:28:02.064Z,29.56
2018-08-16T13:30:30.788Z,29.66
2018-08-16T13:32:59.579Z,28.55
2018-08-16T13:35:28.326Z,27.93
2018-08-16T13:37:57.132Z,29.25
2018-08-16T13:40:25.940Z,27.53
2018-08-16T13:42:54.725Z,26.93
2018-08-16T13:45:23.543Z,27.35
2018-08-16T13:47:52.314Z,26.27
2018-08-16T13:50:21.105Z,26.79
2018-08-16T13:52:49.872Z,26.96
2018-08-16T13:55:18.676Z,26.17
2018-08-16T13:57:47.477Z,26.83
2018-08-16T14:00:16.284Z,26.59
2018-08-16T14:02:45.033Z,27.04
2018-08-16T14:05:13.819Z,26.31
2018-08-16T14:07:42.592Z,28.41
2018-08-16T14:10:11.403Z,26.70
2018-08-16T14:12:40.203Z,27.65
2018-08-16T14:15:09.076Z,25.72
2018-08-16T14:17:37.844Z,25.28
2018-08-16T14:20:07.064Z,25.16
2018-08-16T14:22:35.855Z,27.35
2018-08-16T14:25:05.172Z,28.29
2018-08-16T14:27:33.949Z,28.33
2018-08-16T14:30:02.725Z,27.12
2018-08-16T14:32:31.563Z,29.45
2018-08-16T14:35:00.268Z,27.91
2018-08-16T14:37:29.064Z,28.71
2018-08-16T14:39:57.853Z,27.82
2018-08-16T14:42:26.733Z,27.04
2018-08-16T14:44:55.507Z,28.57
2018-08-16T14:47:24.584Z,26.12
2018-08-16T14:49:53.400Z,29.21
2018-08-16T14:52:22.201Z,28.14
2018-08-16T14:54:51.030Z,26.88
2018-08-16T14:57:19.789Z,26.92
2018-08-16T14:59:48.556Z,26.69
2018-08-16T15:02:17.352Z,27.60
2018-08-16T15:04:46.168Z,27.64
2018-08-16T15:07:14.931Z,27.41
2018-08-16T15:09:43.688Z,27.50
2018-08-16T15:12:12.456Z,27.95
2018-08-16T15:14:41.229Z,25.79
2018-08-16T15:17:10.033Z,28.78
2018-08-16T15:19:38.854Z,30.04
2018-08-16T15:22:07.729Z,29.90
2018-08-16T15:24:36.481Z,29.18
2018-08-16T15:27:05.309Z,29.95
2018-08-16T15:29:34.079Z,28.78
2018-08-16T15:32:02.844Z,29.85
2018-08-16T15:34:31.576Z,28.52
2018-08-16T15:37:00.355Z,28.33
2018-08-16T15:39:29.116Z,30.37
2018-08-16T15:41:57.887Z,29.79
2018-08-16T15:44:26.638Z,30.49
2018-08-16T15:46:55.397Z,30.88
2018-08-16T15:49:24.160Z,30.89
2018-08-16T15:51:52.945Z,30.55
2018-08-16T15:54:21.722Z,29.19
2018-08-16T15:56:50.484Z,29.69
2018-08-16T15:59:19.325Z,29.18
2018-08-16T16:01:48.032Z,29.58
2018-08-16T16:04:16.785Z,27.86
2018-08-16T16:06:45.578Z,28.57
2018-08-16T16:09:14.336Z,28.29
2018-08-16T16:11:43.080Z,28.13
2018-08-16T16:14:11.837Z,28.53
2018-08-16T16:16:40.604Z,27.97
2018-08-16T16:19:09.395Z,27.85
2018-08-16T16:21:38.124Z,28.28
2018-08-16T16:24:06.959Z,27.69
2018-08-16T16:26:35.714Z,27.94
2018-08-16T16:29:04.536Z,27.92
2018-08-16T16:31:33.286Z,29.15
2018-08-16T16:34:02.032Z,27.88
2018-08-16T16:36:30.793Z,27.72
2018-08-16T16:38:59.556Z,27.91
2018-08-16T16:41:28.336Z,29.70
2018-08-16T16:43:57.125Z,29.99
2018-08-16T16:46:25.881Z,29.38
2018-08-16T16:48:54.647Z,29.31
2018-08-16T16:51:23.389Z,28.13
2018-08-16T16:53:52.140Z,28.45
2018-08-16T16:56:20.892Z,29.14
2018-08-16T16:58:49.692Z,28.91
2018-08-16T17:01:18.440Z,29.55
2018-08-16T17:03:47.230Z,29.17
2018-08-16T17:06:16.069Z,29.21
2018-08-16T17:08:44.844Z,30.09
2018-08-16T17:11:13.578Z,29.96
2018-08-16T17:13:42.366Z,30.99
2018-08-16T17:16:11.281Z,31.47
2018-08-16T17:18:40.121Z,30.56
2018-08-16T17:21:08.883Z,30.83
2018-08-16T17:23:37.638Z,31.30
2018-08-16T17:26:06.791Z,31.01
2018-08-16T17:28:35.532Z,30.88
2018-08-16T17:31:04.286Z,31.42
2018-08-16T17:33:33.056Z,31.63
2018-08-16T17:36:01.849Z,32.07
2018-08-16T17:38:30.584Z,32.27
2018-08-16T17:40:59.435Z,31.47
2018-08-16T17:43:28.155Z,31.52
2018-08-16T17:45:56.939Z,31.88
2018-08-16T17:48:25.686Z,32.03
2018-08-16T17:50:54.433Z,32.15
2018-08-16T17:53:23.188Z,33.46
2018-08-16T17:55:51.946Z,32.55
2018-08-16T17:58:21.084Z,32.79
2018-08-16T18:00:49.951Z,32.49
2018-08-16T18:03:18.664Z,34.01
2018-08-16T18:05:47.820Z,35.00
2018-08-16T18:08:16.609Z,33.89
2018-08-16T18:10:45.473Z,34.00
2018-08-16T18:13:14.224Z,35.37
2018-08-16T18:15:43.005Z,33.90
2018-08-16T18:18:11.787Z,34.74
2018-08-16T18:20:40.539Z,34.52
2018-08-16T18:23:09.295Z,36.42
2018-08-16T18:25:38.068Z,35.44
2018-08-16T18:28:06.820Z,36.91
2018-08-16T18:30:35.580Z,38.17
2018-08-16T18:33:04.388Z,37.82
2018-08-16T18:35:33.124Z,39.13
2018-08-16T18:38:01.900Z,41.13
2018-08-16T18:40:30.664Z,40.56
2018-08-16T18:42:59.468Z,40.79
2018-08-16T18:45:28.201Z,41.34
2018-08-16T18:47:56.935Z,42.18
2018-08-16T18:50:25.732Z,41.55
2018-08-16T18:52:54.546Z,42.25
2018-08-16T18:55:23.660Z,42.74
2018-08-16T18:57:52.655Z,43.57
2018-08-16T19:00:21.453Z,41.21
2018-08-16T19:02:50.308Z,43.54
2018-08-16T19:05:19.166Z,44.27
2018-08-16T19:07:47.997Z,43.54
2018-08-16T19:10:16.813Z,44.71
2018-08-16T19:12:45.672Z,40.99
2018-08-16T19:15:14.479Z,42.92
2018-08-16T19:17:43.265Z,43.79
2018-08-16T19:20:12.073Z,45.11
2018-08-16T19:22:40.881Z,45.47
2018-08-16T19:25:09.774Z,44.71
2018-08-16T19:27:38.685Z,46.54
2018-08-16T19:30:07.529Z,43.15
2018-08-16T19:32:36.776Z,44.67
2018-08-16T19:35:05.965Z,45.08
2018-08-16T19:37:34.759Z,46.69
2018-08-16T19:40:03.659Z,47.97
2018-08-16T19:42:32.500Z,46.61
2018-08-16T19:45:01.345Z,48.07
2018-08-16T19:47:30.247Z,48.48
2018-08-16T19:49:59.662Z,45.76
2018-08-16T19:52:28.466Z,46.12
2018-08-16T19:54:57.285Z,46.06
2018-08-16T19:57:28.694Z,46.87
2018-08-16T19:59:57.537Z,47.37
2018-08-16T20:02:26.362Z,46.55
2018-08-16T20:04:55.113Z,47.00
2018-08-16T20:07:24.440Z,47.97
2018-08-16T20:09:53.251Z,46.41
2018-08-16T20:12:30.161Z,47.24
2018-08-16T20:14:59.145Z,48.47
2018-08-16T20:17:28.257Z,49.34
2018-08-16T20:19:59.710Z,49.57
2018-08-16T20:22:28.531Z,49.29
2018-08-16T20:24:57.490Z,49.79
2018-08-16T20:27:27.994Z,48.45
2018-08-16T20:32:25.082Z,47.38
2018-08-16T20:34:53.909Z,48.58
2018-08-16T20:37:23.640Z,48.99
2018-08-16T20:39:53.036Z,48.50
2018-08-16T20:42:21.880Z,49.91
2018-08-16T20:44:50.881Z,49.64
2018-08-16T20:47:19.740Z,50.42
2018-08-16T20:49:50.488Z,51.41
2018-08-16T20:52:19.732Z,50.55
2018-08-16T20:54:48.790Z,51.34
2018-08-16T20:57:17.532Z,49.70
2018-08-16T20:59:46.368Z,50.97
2018-08-16T21:02:15.309Z,50.30
2018-08-16T21:04:44.067Z,51.76
2018-08-16T21:07:13.232Z,50.23
2018-08-16T21:09:42.399Z,49.94
2018-08-16T21:12:12.165Z,51.65
2018-08-16T21:14:40.914Z,52.07
2018-08-16T21:17:09.729Z,50.92
2018-08-16T21:19:38.589Z,51.69
2018-08-16T21:22:07.660Z,50.64
2018-08-16T21:24:36.604Z,50.59
2018-08-16T21:27:05.707Z,50.62
2018-08-16T21:29:34.647Z,49.00
2018-08-16T21:32:03.573Z,48.40
2018-08-16T21:34:32.445Z,50.49
2018-08-16T21:37:01.193Z,49.25
2018-08-16T21:39:29.941Z,49.94
2018-08-16T21:41:59.534Z,50.75
2018-08-16T21:44:29.015Z,51.10
2018-08-16T21:46:57.790Z,51.69
2018-08-16T21:49:26.602Z,51.88
2018-08-16T21:51:55.393Z,50.60
2018-08-16T21:54:24.177Z,51.09
2018-08-16T21:56:53.893Z,52.34
2018-08-16T21:59:22.649Z,52.79
2018-08-16T22:01:52.329Z,51.46
2018-08-16T22:04:21.328Z,51.54
2018-08-16T22:07:01.717Z,51.42
2018-08-16T22:09:32.117Z,51.85
2018-08-16T22:12:02.742Z,51.25
2018-08-16T22:14:31.599Z,50.82
2018-08-16T22:17:02.281Z,50.13
2018-08-16T22:19:31.084Z,50.96
2018-08-16T22:22:00.507Z,51.19
2018-08-16T22:24:30.900Z,51.17
2018-08-16T22:27:00.239Z,52.99
2018-08-16T22:29:30.940Z,52.61
2018-08-16T22:31:59.810Z,52.96
2018-08-16T22:34:29.562Z,53.38
2018-08-16T22:37:00.470Z,49.63
2018-08-16T22:39:29.325Z,52.29
2018-08-16T22:41:58.997Z,52.31
2018-08-16T22:44:27.820Z,52.45
2018-08-16T22:46:56.584Z,53.79
2018-08-16T22:49:25.381Z,52.42
2018-08-16T22:51:55.393Z,52.60
2018-08-16T22:54:25.347Z,50.27
2018-08-16T22:56:56.425Z,51.25
2018-08-16T22:59:25.250Z,50.49
2018-08-16T23:01:54.888Z,50.07
2018-08-16T23:04:23.750Z,50.83
2018-08-16T23:06:52.517Z,51.80
2018-08-16T23:09:22.914Z,52.22
2018-08-16T23:11:53.683Z,52.98
2018-08-16T23:14:22.501Z,51.52
2018-08-16T23:16:52.835Z,53.30
2018-08-16T23:19:21.685Z,53.11
2018-08-16T23:21:50.493Z,53.93
2018-08-16T23:24:20.288Z,52.27
2018-08-16T23:26:49.071Z,53.07
2018-08-16T23:29:17.832Z,53.24
2018-08-16T23:31:46.578Z,53.55
2018-08-16T23:34:17.178Z,54.70
2018-08-16T23:36:45.921Z,54.06
2018-08-16T23:39:16.777Z,53.39
2018-08-16T23:41:46.932Z,55.13
2018-08-16T23:44:15.864Z,54.82
2018-08-16T23:46:45.990Z,55.04
2018-08-16T23:49:15.909Z,54.54
2018-08-16T23:51:44.681Z,55.89
2018-08-16T23:54:13.449Z,56.33
2018-08-16T23:56:42.248Z,56.45
2018-08-16T23:59:10.996Z,57.48
